createdAt,value
2019-03-19T00:00:28.279Z,89.40
2019-03-19T00:02:56.942Z,89.30
2019-03-19T00:05:25.596Z,89.30
2019-03-19T00:07:54.283Z,89.50
2019-03-19T00:10:22.927Z,89.40
2019-03-19T00:12:51.583Z,89.70
2019-03-19T00:15:20.311Z,89.80
2019-03-19T00:17:49.088Z,90.00
2019-03-19T00:20:17.754Z,90.10
2019-03-19T00:22:46.463Z,90.10
2019-03-19T00:25:15.195Z,90.30
2019-03-19T00:27:43.859Z,90.30
2019-03-19T00:30:14.182Z,90.30
2019-03-19T00:32:42.847Z,90.40
2019-03-19T00:35:11.813Z,90.50
2019-03-19T00:37:40.508Z,90.50
2019-03-19T00:40:11.430Z,90.60
2019-03-19T00:42:39.319Z,90.60
2019-03-19T00:45:10.314Z,90.60
2019-03-19T00:47:38.205Z,90.70
2019-03-19T00:50:09.999Z,90.80
2019-03-19T00:52:38.622Z,90.70
2019-03-19T00:55:07.863Z,90.80
2019-03-19T00:57:36.441Z,90.90
2019-03-19T01:00:11.094Z,91.00
2019-03-19T01:02:39.642Z,91.10
2019-03-19T01:05:09.275Z,91.30
2019-03-19T01:07:38.081Z,91.30
2019-03-19T01:10:09.780Z,91.40
2019-03-19T01:12:38.511Z,91.60
2019-03-19T01:15:09.903Z,91.50
2019-03-19T01:17:38.595Z,91.70
2019-03-19T01:20:09.931Z,91.60
2019-03-19T01:22:38.659Z,91.50
2019-03-19T01:25:09.612Z,91.40
2019-03-19T01:27:37.514Z,91.30
2019-03-19T01:30:29.944Z,91.50
2019-03-19T01:32:58.754Z,91.50
2019-03-19T01:35:27.475Z,91.40
2019-03-19T01:37:56.126Z,91.30
2019-03-19T01:40:24.807Z,91.30
2019-03-19T01:42:53.460Z,91.30
2019-03-19T01:45:22.122Z,91.30
2019-03-19T01:47:50.782Z,91.30
2019-03-19T01:50:19.447Z,91.20
2019-03-19T01:52:48.145Z,91.10
2019-03-19T01:55:16.878Z,91.10
2019-03-19T01:57:45.611Z,91.10
2019-03-19T02:00:15.740Z,91.20
2019-03-19T02:02:44.475Z,91.30
2019-03-19T02:05:13.321Z,91.30
2019-03-19T02:07:42.056Z,91.40
2019-03-19T02:10:14.617Z,91.50
2019-03-19T02:12:45.992Z,91.40
2019-03-19T02:15:16.893Z,91.40
2019-03-19T02:17:44.939Z,91.70
2019-03-19T02:20:17.517Z,91.70
2019-03-19T02:22:46.356Z,91.80
2019-03-19T02:25:15.202Z,91.80
2019-03-19T02:27:44.055Z,91.80
2019-03-19T02:30:14.932Z,91.90
2019-03-19T02:32:43.640Z,92.20
2019-03-19T02:35:12.357Z,91.90
2019-03-19T02:37:41.075Z,92.00
2019-03-19T02:40:17.241Z,91.90
2019-03-19T02:42:45.983Z,91.90
2019-03-19T02:45:15.594Z,92.00
2019-03-19T02:47:44.384Z,92.00
2019-03-19T02:50:32.417Z,92.10
2019-03-19T02:53:01.084Z,92.20
2019-03-19T02:55:29.740Z,92.20
2019-03-19T02:57:58.571Z,92.40
2019-03-19T03:00:27.300Z,92.30
2019-03-19T03:02:55.981Z,92.50
2019-03-19T03:05:24.812Z,92.50
2019-03-19T03:07:53.465Z,92.40
2019-03-19T03:10:22.228Z,92.60
2019-03-19T03:12:50.887Z,92.80
2019-03-19T03:15:19.605Z,93.00
2019-03-19T03:17:48.260Z,93.60
2019-03-19T03:20:17.615Z,93.80
2019-03-19T03:22:46.328Z,94.20
2019-03-19T03:25:18.452Z,94.60
2019-03-19T03:27:47.046Z,94.90
2019-03-19T03:30:22.820Z,95.50
2019-03-19T03:32:51.716Z,95.90
2019-03-19T03:35:20.505Z,96.30
2019-03-19T03:37:49.134Z,96.50
2019-03-19T03:40:19.142Z,96.70
2019-03-19T03:42:47.802Z,96.90
2019-03-19T03:45:17.502Z,96.80
2019-03-19T03:47:46.196Z,96.90
2019-03-19T03:50:18.010Z,96.90
2019-03-19T03:52:46.738Z,96.80
2019-03-19T03:55:16.471Z,96.90
2019-03-19T03:57:45.266Z,96.80
2019-03-19T04:00:21.688Z,96.90
2019-03-19T04:02:50.488Z,96.90
2019-03-19T04:05:19.224Z,97.00
2019-03-19T04:07:47.951Z,97.00
2019-03-19T04:10:19.707Z,96.90
2019-03-19T04:12:48.583Z,97.00
2019-03-19T04:15:20.051Z,97.00
2019-03-19T04:17:48.833Z,97.10
2019-03-19T04:20:18.460Z,97.00
2019-03-19T04:22:47.189Z,97.10
2019-03-19T04:25:15.964Z,97.10
2019-03-19T04:27:44.709Z,97.20
2019-03-19T04:30:16.376Z,97.30
2019-03-19T04:32:45.143Z,97.30
2019-03-19T04:35:13.876Z,97.30
2019-03-19T04:37:42.628Z,97.40
2019-03-19T04:40:15.305Z,97.40
2019-03-19T04:42:44.495Z,97.40
2019-03-19T04:45:16.953Z,97.50
2019-03-19T04:47:45.738Z,97.50
2019-03-19T04:50:15.480Z,97.40
2019-03-19T04:52:44.517Z,97.50
2019-03-19T04:55:16.664Z,97.40
2019-03-19T04:57:45.465Z,97.40
2019-03-19T05:00:18.244Z,97.40
2019-03-19T05:02:46.908Z,97.50
2019-03-19T05:05:15.633Z,97.50
2019-03-19T05:07:44.395Z,97.40
2019-03-19T05:10:17.719Z,97.60
2019-03-19T05:12:46.681Z,97.40
2019-03-19T05:15:15.529Z,97.30
2019-03-19T05:17:44.259Z,97.50
2019-03-19T05:20:14.988Z,97.50
2019-03-19T05:22:43.726Z,97.50
2019-03-19T05:25:12.771Z,97.30
2019-03-19T05:27:41.508Z,97.50
2019-03-19T05:30:15.060Z,97.50
2019-03-19T05:32:43.686Z,97.50
2019-03-19T05:35:12.419Z,97.30
2019-03-19T05:37:44.031Z,97.20
2019-03-19T05:40:13.968Z,97.00
2019-03-19T05:42:42.806Z,96.70
2019-03-19T05:45:15.246Z,96.70
2019-03-19T05:47:43.943Z,97.00
2019-03-19T05:50:15.606Z,97.10
2019-03-19T05:52:44.358Z,97.00
2019-03-19T05:55:13.261Z,96.90
2019-03-19T05:57:49.376Z,97.00
2019-03-19T06:00:14.046Z,97.40
2019-03-19T06:02:42.679Z,97.20
2019-03-19T06:05:14.384Z,97.30
2019-03-19T06:07:43.110Z,97.00
2019-03-19T06:10:12.781Z,97.10
2019-03-19T06:12:41.579Z,96.90
2019-03-19T06:15:14.268Z,96.90
2019-03-19T06:17:42.960Z,96.90
2019-03-19T06:20:13.696Z,96.90
2019-03-19T06:22:42.359Z,97.20
2019-03-19T06:25:11.996Z,97.40
2019-03-19T06:27:40.634Z,97.20
2019-03-19T06:30:17.757Z,97.40
2019-03-19T06:32:46.610Z,96.80
2019-03-19T06:35:16.134Z,96.40
2019-03-19T06:37:44.863Z,95.70
2019-03-19T06:40:17.730Z,95.60
2019-03-19T06:42:46.519Z,95.80
2019-03-19T06:45:16.449Z,95.70
2019-03-19T06:47:45.450Z,95.60
2019-03-19T06:50:15.375Z,95.60
2019-03-19T06:52:44.379Z,95.80
2019-03-19T06:55:18.100Z,95.80
2019-03-19T06:57:46.833Z,95.50
2019-03-19T07:00:23.279Z,95.00
2019-03-19T07:02:52.086Z,95.50
2019-03-19T07:05:21.120Z,95.70
2019-03-19T07:07:49.918Z,95.30
2019-03-19T07:10:19.362Z,95.10
2019-03-19T07:12:48.163Z,95.40
2019-03-19T07:15:21.018Z,94.90
2019-03-19T07:17:49.661Z,94.90
2019-03-19T07:20:19.491Z,94.50
2019-03-19T07:22:48.225Z,94.70
2019-03-19T07:25:16.955Z,94.70
2019-03-19T07:27:45.678Z,94.90
2019-03-19T07:30:19.338Z,94.60
2019-03-19T07:33:07.335Z,94.50
2019-03-19T07:35:36.007Z,94.80
2019-03-19T07:38:04.771Z,93.80
2019-03-19T07:40:52.756Z,94.20
2019-03-19T07:43:21.492Z,94.00
2019-03-19T07:45:50.141Z,93.50
2019-03-19T07:48:18.883Z,93.70
2019-03-19T07:50:47.539Z,93.60
2019-03-19T07:53:16.192Z,93.90
2019-03-19T07:55:44.867Z,93.80
2019-03-19T07:58:13.528Z,93.80
2019-03-19T08:00:42.260Z,93.80
2019-03-19T08:03:15.904Z,93.70
2019-03-19T08:05:41.305Z,93.60
2019-03-19T08:08:09.971Z,94.10
2019-03-19T08:10:38.654Z,93.10
2019-03-19T08:13:07.238Z,93.00
2019-03-19T08:15:35.923Z,93.00
2019-03-19T08:18:04.651Z,93.50
2019-03-19T08:20:33.490Z,94.00
2019-03-19T08:23:02.216Z,93.50
2019-03-19T08:25:30.881Z,93.00
2019-03-19T08:27:59.471Z,92.30
2019-03-19T08:30:28.262Z,92.30
2019-03-19T08:32:56.928Z,92.30
2019-03-19T08:35:25.592Z,91.80
2019-03-19T08:37:54.318Z,92.10
2019-03-19T08:40:23.222Z,92.40
2019-03-19T08:42:51.945Z,91.90
2019-03-19T08:45:26.418Z,91.80
2019-03-19T08:47:55.146Z,91.80
2019-03-19T08:50:24.449Z,91.20
2019-03-19T08:52:55.248Z,90.20
2019-03-19T08:55:23.463Z,90.20
2019-03-19T08:57:52.079Z,90.00
2019-03-19T09:00:25.170Z,90.10
2019-03-19T09:02:54.781Z,90.30
2019-03-19T09:05:24.679Z,90.20
2019-03-19T09:07:53.341Z,89.90
2019-03-19T09:10:22.132Z,89.10
2019-03-19T09:12:50.695Z,89.10
2019-03-19T09:15:21.331Z,90.10
2019-03-19T09:17:50.008Z,90.80
2019-03-19T09:20:19.134Z,90.40
2019-03-19T09:22:47.891Z,90.40
2019-03-19T09:25:16.718Z,90.90
2019-03-19T09:27:45.436Z,91.30
2019-03-19T09:30:16.068Z,90.20
2019-03-19T09:32:44.884Z,89.60
2019-03-19T09:35:13.824Z,90.10
2019-03-19T09:37:44.763Z,88.10
2019-03-19T09:40:14.669Z,85.80
2019-03-19T09:42:43.398Z,86.70
2019-03-19T09:45:14.140Z,86.80
2019-03-19T09:47:42.806Z,85.40
2019-03-19T09:50:20.510Z,85.90
2019-03-19T09:52:49.235Z,87.10
2019-03-19T09:55:17.973Z,87.80
2019-03-19T09:57:46.708Z,89.40
2019-03-19T10:00:19.444Z,87.50
2019-03-19T10:03:08.894Z,87.50
2019-03-19T10:05:37.617Z,88.80
2019-03-19T10:08:06.439Z,88.70
2019-03-19T10:10:35.113Z,87.10
2019-03-19T10:13:03.973Z,86.10
2019-03-19T10:15:32.641Z,85.60
2019-03-19T10:18:01.307Z,86.30
2019-03-19T10:20:29.964Z,85.40
2019-03-19T10:22:58.662Z,82.60
2019-03-19T10:25:27.402Z,82.10
2019-03-19T10:27:56.127Z,81.80
2019-03-19T10:30:25.063Z,81.80
2019-03-19T10:32:53.732Z,82.80
2019-03-19T10:35:22.455Z,83.30
2019-03-19T10:37:51.122Z,83.40
2019-03-19T10:40:30.064Z,81.50
2019-03-19T10:42:58.771Z,80.80
2019-03-19T10:45:27.434Z,80.40
2019-03-19T10:47:56.090Z,81.40
2019-03-19T10:50:25.820Z,82.70
2019-03-19T10:52:54.624Z,81.90
2019-03-19T10:55:23.343Z,82.50
2019-03-19T10:57:52.146Z,83.50
2019-03-19T11:00:25.527Z,84.20
2019-03-19T11:02:54.431Z,85.40
2019-03-19T11:05:25.035Z,84.00
2019-03-19T11:07:53.869Z,83.00
2019-03-19T11:10:22.751Z,83.40
2019-03-19T11:12:51.623Z,82.50
2019-03-19T11:15:21.184Z,83.00
2019-03-19T11:17:49.894Z,84.10
2019-03-19T11:20:19.596Z,82.70
2019-03-19T11:22:48.402Z,82.10
2019-03-19T11:25:26.100Z,83.70
2019-03-19T11:27:54.725Z,83.80
2019-03-19T11:30:28.208Z,83.00
2019-03-19T11:32:56.936Z,85.20
2019-03-19T11:35:28.652Z,86.30
2019-03-19T11:37:57.459Z,86.70
2019-03-19T11:40:26.425Z,87.10
2019-03-19T11:42:55.388Z,86.70
2019-03-19T11:45:24.864Z,87.90
2019-03-19T11:47:53.733Z,88.90
2019-03-19T11:50:26.435Z,90.10
2019-03-19T11:52:55.118Z,90.40
2019-03-19T11:55:23.810Z,89.10
2019-03-19T11:57:57.209Z,90.10
2019-03-19T12:00:42.973Z,90.00
2019-03-19T12:03:16.131Z,89.70
2019-03-19T12:05:42.110Z,88.30
2019-03-19T12:08:10.831Z,88.40
2019-03-19T12:10:39.494Z,89.00
2019-03-19T12:13:08.155Z,88.60
2019-03-19T12:15:36.859Z,90.00
2019-03-19T12:18:06.491Z,91.50
2019-03-19T12:20:35.258Z,91.60
2019-03-19T12:23:04.127Z,92.40
2019-03-19T12:25:32.782Z,93.10
2019-03-19T12:28:01.453Z,93.20
2019-03-19T12:30:30.172Z,92.50
2019-03-19T12:32:58.843Z,92.90
2019-03-19T12:35:27.432Z,92.90
2019-03-19T12:37:56.083Z,92.80
2019-03-19T12:40:35.938Z,93.10
2019-03-19T12:42:55.332Z,92.70
2019-03-19T12:45:24.764Z,93.00
2019-03-19T12:47:53.487Z,93.40
2019-03-19T12:50:23.421Z,93.60
2019-03-19T12:52:52.081Z,94.10
2019-03-19T12:55:20.809Z,93.70
2019-03-19T12:57:49.586Z,93.90
2019-03-19T13:00:34.341Z,94.20
2019-03-19T13:02:58.720Z,94.00
2019-03-19T13:05:27.499Z,94.20
2019-03-19T13:07:56.165Z,93.90
2019-03-19T13:10:25.359Z,94.20
2019-03-19T13:12:54.114Z,94.10
2019-03-19T13:15:22.868Z,94.10
2019-03-19T13:17:51.613Z,94.10
2019-03-19T13:20:24.034Z,94.30
2019-03-19T13:22:52.683Z,94.10
2019-03-19T13:25:25.152Z,94.40
2019-03-19T13:27:53.847Z,94.60
2019-03-19T13:30:24.090Z,94.90
2019-03-19T13:32:52.747Z,95.50
2019-03-19T13:35:21.415Z,94.70
2019-03-19T13:37:50.155Z,94.60
2019-03-19T13:40:19.387Z,95.10
2019-03-19T13:42:48.223Z,95.10
2019-03-19T13:45:21.819Z,94.80
2019-03-19T13:47:50.483Z,95.10
2019-03-19T13:50:19.721Z,95.20
2019-03-19T13:52:48.453Z,95.20
2019-03-19T13:55:21.784Z,95.10
2019-03-19T13:57:50.455Z,95.10
2019-03-19T14:00:19.678Z,95.20
2019-03-19T14:02:48.607Z,95.60
2019-03-19T14:05:17.937Z,95.50
2019-03-19T14:07:46.727Z,95.50
2019-03-19T14:10:17.639Z,95.50
2019-03-19T14:12:45.519Z,95.60
2019-03-19T14:15:19.919Z,95.80
2019-03-19T14:17:48.583Z,95.40
2019-03-19T14:20:17.539Z,95.40
2019-03-19T14:22:46.167Z,95.80
2019-03-19T14:25:15.687Z,95.00
2019-03-19T14:27:44.528Z,95.30
2019-03-19T14:30:20.418Z,94.90
2019-03-19T14:32:49.143Z,94.90
2019-03-19T14:35:17.892Z,94.90
2019-03-19T14:37:48.072Z,94.40
2019-03-19T14:40:24.558Z,94.50
2019-03-19T14:42:53.275Z,94.50
2019-03-19T14:45:21.928Z,94.00
2019-03-19T14:47:50.662Z,93.90
2019-03-19T14:50:21.555Z,93.80
2019-03-19T14:52:49.444Z,93.90
2019-03-19T14:55:18.141Z,93.90
2019-03-19T14:57:46.756Z,93.80
2019-03-19T15:00:20.087Z,93.50
2019-03-19T15:02:48.815Z,93.50
2019-03-19T15:05:17.826Z,93.20
2019-03-19T15:07:46.555Z,93.60
2019-03-19T15:10:21.156Z,93.30
2019-03-19T15:12:50.031Z,93.50
2019-03-19T15:15:22.268Z,93.00
2019-03-19T15:17:51.797Z,93.10
2019-03-19T15:20:21.424Z,93.00
2019-03-19T15:22:50.122Z,93.30
2019-03-19T15:25:18.811Z,93.10
2019-03-19T15:27:47.547Z,93.80
2019-03-19T15:30:19.478Z,93.90
2019-03-19T15:32:48.154Z,93.90
2019-03-19T15:35:16.881Z,94.00
2019-03-19T15:37:45.607Z,94.30
2019-03-19T15:40:15.459Z,93.90
2019-03-19T15:42:44.187Z,93.90
2019-03-19T15:45:26.720Z,93.70
2019-03-19T15:47:55.450Z,94.10
2019-03-19T15:50:24.268Z,93.90
2019-03-19T15:52:53.004Z,94.50
2019-03-19T15:55:21.738Z,94.40
2019-03-19T15:57:50.403Z,94.50
2019-03-19T16:00:22.186Z,95.00
2019-03-19T16:02:50.925Z,95.10
2019-03-19T16:05:19.754Z,95.10
2019-03-19T16:07:48.503Z,95.60
2019-03-19T16:10:20.138Z,95.60
2019-03-19T16:12:48.944Z,95.90
2019-03-19T16:15:22.704Z,96.00
2019-03-19T16:17:51.531Z,96.00
2019-03-19T16:20:21.097Z,95.80
2019-03-19T16:22:49.919Z,95.90
2019-03-19T16:25:18.761Z,95.40
2019-03-19T16:27:47.579Z,94.90
2019-03-19T16:30:17.112Z,94.30
2019-03-19T16:32:45.913Z,94.30
2019-03-19T16:35:14.747Z,94.20
2019-03-19T16:37:43.488Z,94.10
2019-03-19T16:40:19.146Z,93.70
2019-03-19T16:42:47.943Z,94.00
2019-03-19T16:45:18.046Z,94.10
2019-03-19T16:47:47.067Z,94.30
2019-03-19T16:50:19.840Z,94.20
2019-03-19T16:52:48.695Z,94.50
2019-03-19T16:55:19.239Z,95.20
2019-03-19T16:57:47.947Z,95.10
2019-03-19T17:00:21.952Z,94.50
2019-03-19T17:02:50.759Z,94.90
2019-03-19T17:05:19.586Z,95.00
2019-03-19T17:07:48.377Z,95.00
2019-03-19T17:10:20.026Z,95.00
2019-03-19T17:12:48.815Z,95.10
2019-03-19T17:15:25.130Z,95.10
2019-03-19T17:17:53.866Z,95.00
2019-03-19T17:20:22.647Z,94.50
2019-03-19T17:22:51.338Z,94.40
2019-03-19T17:25:21.153Z,94.30
2019-03-19T17:27:49.984Z,94.30
2019-03-19T17:30:31.794Z,94.50
2019-03-19T17:33:00.529Z,94.40
2019-03-19T17:35:29.263Z,94.30
2019-03-19T17:37:58.005Z,94.50
2019-03-19T17:40:26.694Z,94.40
2019-03-19T17:42:55.423Z,94.30
2019-03-19T17:45:24.177Z,94.20
2019-03-19T17:47:52.841Z,94.40
2019-03-19T17:50:23.746Z,94.60
2019-03-19T17:52:52.166Z,94.40
2019-03-19T17:55:21.071Z,94.50
2019-03-19T17:57:49.907Z,94.60
2019-03-19T18:00:22.153Z,94.40
2019-03-19T18:02:50.964Z,94.60
2019-03-19T18:05:19.714Z,94.60
2019-03-19T18:07:48.451Z,94.40
2019-03-19T18:10:17.186Z,94.40
2019-03-19T18:12:45.894Z,94.40
2019-03-19T18:15:19.283Z,94.60
2019-03-19T18:17:47.952Z,94.90
2019-03-19T18:20:17.487Z,94.50
2019-03-19T18:22:51.855Z,94.40
2019-03-19T18:25:20.923Z,94.60
2019-03-19T18:27:49.723Z,94.20
2019-03-19T18:30:25.091Z,94.60
2019-03-19T18:32:53.826Z,94.20
2019-03-19T18:35:22.567Z,94.10
2019-03-19T18:37:51.314Z,94.10
2019-03-19T18:40:21.511Z,94.40
2019-03-19T18:42:50.185Z,94.10
2019-03-19T18:45:19.823Z,94.00
2019-03-19T18:47:48.674Z,94.20
2019-03-19T18:50:21.434Z,94.20
2019-03-19T18:52:50.165Z,94.30
2019-03-19T18:55:18.829Z,94.10
2019-03-19T18:57:47.571Z,94.00
2019-03-19T19:00:18.343Z,94.10
2019-03-19T19:02:50.323Z,94.10
2019-03-19T19:05:18.690Z,94.00
2019-03-19T19:07:47.369Z,94.10
2019-03-19T19:10:21.099Z,94.00
2019-03-19T19:12:49.620Z,94.30
2019-03-19T19:15:21.983Z,94.30
2019-03-19T19:17:50.643Z,94.00
2019-03-19T19:20:19.570Z,93.60
2019-03-19T19:22:48.407Z,93.50
2019-03-19T19:25:19.203Z,93.60
2019-03-19T19:27:47.939Z,93.80
2019-03-19T19:30:19.414Z,93.80
2019-03-19T19:32:48.095Z,94.00
2019-03-19T19:35:16.740Z,94.30
2019-03-19T19:37:45.406Z,94.20
2019-03-19T19:40:16.075Z,94.60
2019-03-19T19:42:44.855Z,94.50
2019-03-19T19:45:18.350Z,94.60
2019-03-19T19:47:47.221Z,94.40
2019-03-19T19:50:17.871Z,94.20
2019-03-19T19:52:46.619Z,94.30
2019-03-19T19:55:15.637Z,94.10
2019-03-19T19:57:44.779Z,94.00
2019-03-19T20:00:21.394Z,93.90
2019-03-19T20:02:50.303Z,94.00
2019-03-19T20:05:19.044Z,93.80
2019-03-19T20:07:47.995Z,93.80
2019-03-19T20:10:19.099Z,94.10
2019-03-19T20:12:47.762Z,94.10
2019-03-19T20:15:16.606Z,94.20
2019-03-19T20:17:45.411Z,94.10
2019-03-19T20:20:19.004Z,94.30
2019-03-19T20:22:47.675Z,94.30
2019-03-19T20:25:16.330Z,94.10
2019-03-19T20:27:45.067Z,93.90
2019-03-19T20:30:21.929Z,93.80
2019-03-19T20:32:52.576Z,93.80
2019-03-19T20:35:23.006Z,93.60
2019-03-19T20:37:53.314Z,93.80
2019-03-19T20:40:22.161Z,94.00
2019-03-19T20:42:50.896Z,94.20
2019-03-19T20:45:22.091Z,94.00
2019-03-19T20:47:50.762Z,94.00
2019-03-19T20:50:22.169Z,94.20
2019-03-19T20:52:50.827Z,94.30
2019-03-19T20:55:19.498Z,94.50
2019-03-19T20:57:48.154Z,94.30
2019-03-19T21:00:17.987Z,93.80
2019-03-19T21:02:46.715Z,93.60
2019-03-19T21:05:15.585Z,93.50
2019-03-19T21:07:44.333Z,93.20
2019-03-19T21:10:15.843Z,93.60
2019-03-19T21:12:44.574Z,93.10
2019-03-19T21:15:26.506Z,93.20
2019-03-19T21:17:55.231Z,93.60
2019-03-19T21:20:23.909Z,93.70
2019-03-19T21:22:52.569Z,93.50
2019-03-19T21:25:21.321Z,93.70
2019-03-19T21:27:50.255Z,93.40
2019-03-19T21:30:21.123Z,93.10
2019-03-19T21:32:49.837Z,93.30
2019-03-19T21:35:23.120Z,93.30
2019-03-19T21:37:52.139Z,93.40
2019-03-19T21:40:20.890Z,93.60
2019-03-19T21:42:50.035Z,93.60
2019-03-19T21:45:19.661Z,93.20
2019-03-19T21:47:48.411Z,93.30
2019-03-19T21:50:19.400Z,93.00
2019-03-19T21:52:47.309Z,92.70
2019-03-19T21:55:16.293Z,92.70
2019-03-19T21:57:45.020Z,92.70
2019-03-19T22:00:21.775Z,92.70
2019-03-19T22:02:50.517Z,93.10
2019-03-19T22:05:19.247Z,93.10
2019-03-19T22:07:47.907Z,92.60
2019-03-19T22:10:18.815Z,92.50
2019-03-19T22:12:49.359Z,93.00
2019-03-19T22:15:26.087Z,92.40
2019-03-19T22:17:54.748Z,92.60
2019-03-19T22:20:23.486Z,92.40
2019-03-19T22:22:52.215Z,92.50
2019-03-19T22:25:20.884Z,92.40
2019-03-19T22:27:49.638Z,92.40
2019-03-19T22:30:19.369Z,92.10
2019-03-19T22:32:48.067Z,92.20
2019-03-19T22:35:16.803Z,92.40
2019-03-19T22:37:45.572Z,92.00
2019-03-19T22:40:15.418Z,92.00
2019-03-19T22:42:44.203Z,92.20
2019-03-19T22:45:17.805Z,91.80
2019-03-19T22:47:46.551Z,91.70
2019-03-19T22:50:16.207Z,91.70
2019-03-19T22:52:45.000Z,91.50
2019-03-19T22:55:14.421Z,91.70
2019-03-19T22:57:43.570Z,91.60
2019-03-19T23:00:37.224Z,92.00
2019-03-19T23:03:07.193Z,91.50
2019-03-19T23:05:36.283Z,91.30
2019-03-19T23:08:05.295Z,91.60
2019-03-19T23:10:34.417Z,91.30
2019-03-19T23:13:03.332Z,91.40
2019-03-19T23:15:32.074Z,91.20
2019-03-19T23:18:00.739Z,91.40
2019-03-19T23:20:29.637Z,91.40
2019-03-19T23:22:58.442Z,91.30
2019-03-19T23:25:27.104Z,91.30
2019-03-19T23:27:55.839Z,91.60
2019-03-19T23:30:25.268Z,91.40
2019-03-19T23:32:54.035Z,91.10
2019-03-19T23:35:22.733Z,91.40
2019-03-19T23:37:51.432Z,91.30
2019-03-19T23:40:20.860Z,91.30
2019-03-19T23:42:49.588Z,91.20
2019-03-19T23:45:18.356Z,91.40
2019-03-19T23:47:47.115Z,91.30
2019-03-19T23:50:19.910Z,91.70
2019-03-19T23:52:48.567Z,91.60
2019-03-19T23:55:17.227Z,91.40
2019-03-19T23:57:45.878Z,91.60
